createdAt,value
2019-05-03T00:01:05.368Z,98527.05
2019-05-03T00:03:13.407Z,98526.18
2019-05-03T00:05:32.331Z,98524.88
2019-05-03T00:07:38.816Z,98526.62
2019-05-03T00:09:45.364Z,98520.50
2019-05-03T00:11:52.919Z,98534.52
2019-05-03T00:13:59.382Z,98524.88
2019-05-03T00:16:07.543Z,98524.88
2019-05-03T00:18:14.233Z,98527.51
2019-05-03T00:20:21.930Z,98527.07
2019-05-03T00:22:28.470Z,98522.70
2019-05-03T00:24:34.867Z,98523.57
2019-05-03T00:26:42.332Z,98521.38
2019-05-03T00:28:51.909Z,98524.92
2019-05-03T00:30:58.617Z,98531.05
2019-05-03T00:33:05.124Z,98529.30
2019-05-03T00:35:22.478Z,98524.05
2019-05-03T00:37:30.349Z,98522.30
2019-05-03T00:39:54.605Z,98520.55
2019-05-03T00:42:02.740Z,98522.74
2019-05-03T00:44:11.553Z,98519.69
2019-05-03T00:46:18.110Z,98520.59
2019-05-03T00:48:24.561Z,98515.34
2019-05-03T00:50:32.035Z,98517.97
2019-05-03T00:52:39.913Z,98519.72
2019-05-03T00:54:46.313Z,98518.84
2019-05-03T00:56:52.813Z,98517.98
2019-05-03T00:58:59.591Z,98521.92
2019-05-03T01:01:06.159Z,98518.42
2019-05-03T01:03:12.685Z,98514.92
2019-05-03T01:05:19.125Z,98516.70
2019-05-03T01:07:25.521Z,98516.27
2019-05-03T01:09:32.000Z,98519.77
2019-05-03T01:11:38.404Z,98517.14
2019-05-03T01:13:44.787Z,98510.58
2019-05-03T01:15:55.682Z,98511.02
2019-05-03T01:18:03.726Z,98511.02
2019-05-03T01:20:11.946Z,98509.27
2019-05-03T01:22:18.514Z,98504.01
2019-05-03T01:24:24.911Z,98505.77
2019-05-03T01:26:31.926Z,98507.08
2019-05-03T01:28:38.570Z,98507.95
2019-05-03T01:30:45.102Z,98501.78
2019-05-03T01:32:52.360Z,98501.34
2019-05-03T01:34:59.239Z,98500.91
2019-05-03T01:37:05.766Z,98503.97
2019-05-03T01:39:12.762Z,98506.16
2019-05-03T01:41:19.445Z,98501.73
2019-05-03T01:43:25.900Z,98494.66
2019-05-03T01:45:32.291Z,98487.19
2019-05-03T01:47:43.057Z,98488.44
2019-05-03T01:49:52.046Z,98481.37
2019-05-03T01:52:08.336Z,98484.39
2019-05-03T01:54:14.615Z,98485.19
2019-05-03T01:56:22.289Z,98478.55
2019-05-03T01:58:28.839Z,98477.20
2019-05-03T02:00:35.322Z,98469.68
2019-05-03T02:02:49.664Z,98476.22
2019-05-03T02:05:12.934Z,98469.63
2019-05-03T02:07:19.355Z,98466.49
2019-05-03T02:09:25.744Z,98462.52
2019-05-03T02:11:32.612Z,98462.50
2019-05-03T02:13:39.252Z,98466.38
2019-05-03T02:15:45.792Z,98469.86
2019-05-03T02:17:52.261Z,98469.84
2019-05-03T02:19:58.685Z,98471.53
2019-05-03T02:22:05.176Z,98468.45
2019-05-03T02:24:11.908Z,98471.97
2019-05-03T02:26:18.538Z,98472.38
2019-05-03T02:28:24.923Z,98471.04
2019-05-03T02:30:33.236Z,98471.86
2019-05-03T02:32:39.419Z,98470.54
2019-05-03T02:34:45.808Z,98469.20
2019-05-03T02:36:53.819Z,98474.00
2019-05-03T02:39:02.684Z,98473.47
2019-05-03T02:41:13.209Z,98472.56
2019-05-03T02:43:26.037Z,98475.98
2019-05-03T02:45:35.109Z,98483.39
2019-05-03T02:47:42.433Z,98480.22
2019-05-03T02:49:50.526Z,98486.75
2019-05-03T02:51:57.016Z,98477.03
2019-05-03T02:54:05.569Z,98485.75
2019-05-03T02:56:20.769Z,98476.05
2019-05-03T02:58:19.663Z,98471.22
2019-05-03T03:00:58.230Z,98466.44
2019-05-03T03:03:05.481Z,98470.52
2019-05-03T03:05:12.644Z,98471.52
2019-05-03T03:07:20.952Z,98470.70
2019-05-03T03:09:28.962Z,98473.42
2019-05-03T03:11:39.323Z,98471.28
2019-05-03T03:13:48.407Z,98477.06
2019-05-03T03:15:55.348Z,98477.97
2019-05-03T03:18:02.727Z,98485.44
2019-05-03T03:20:10.393Z,98484.13
2019-05-03T03:22:20.390Z,98483.25
2019-05-03T03:24:30.445Z,98480.16
2019-05-03T03:26:43.165Z,98466.09
2019-05-03T03:28:50.907Z,98474.80
2019-05-03T03:31:08.305Z,98485.27
2019-05-03T03:33:18.118Z,98486.03
2019-05-03T03:35:30.266Z,98485.03
2019-05-03T03:37:38.545Z,98498.13
2019-05-03T03:39:46.110Z,98497.13
2019-05-03T03:41:56.043Z,98499.72
2019-05-03T03:44:05.838Z,98504.50
2019-05-03T03:46:15.784Z,98503.61
2019-05-03T03:48:26.542Z,98508.88
2019-05-03T03:50:35.896Z,98507.53
2019-05-03T03:52:45.238Z,98508.39
2019-05-03T03:54:55.277Z,98505.30
2019-05-03T03:57:06.879Z,98510.09
2019-05-03T03:59:09.887Z,98504.77
2019-05-03T04:01:16.403Z,98510.84
2019-05-03T04:03:25.952Z,98504.65
2019-05-03T04:05:31.218Z,98510.27
2019-05-03T04:07:38.799Z,98497.89
2019-05-03T04:09:46.393Z,98500.00
2019-05-03T04:11:53.421Z,98503.84
2019-05-03T04:13:59.952Z,98502.42
2019-05-03T04:16:20.282Z,98508.50
2019-05-03T04:18:40.975Z,98507.94
2019-05-03T04:20:47.499Z,98511.40
2019-05-03T04:22:56.040Z,98518.84
2019-05-03T04:25:02.814Z,98510.50
2019-05-03T04:27:23.010Z,98512.67
2019-05-03T04:29:19.225Z,98510.04
2019-05-03T04:31:26.112Z,98509.50
2019-05-03T04:33:35.724Z,98509.92
2019-05-03T04:35:41.042Z,98509.34
2019-05-03T04:37:48.491Z,98512.81
2019-05-03T04:39:56.085Z,98520.29
2019-05-03T04:42:02.849Z,98521.53
2019-05-03T04:44:09.272Z,98529.32
2019-05-03T04:46:20.116Z,98536.31
2019-05-03T04:48:26.543Z,98541.59
2019-05-03T04:50:36.332Z,98538.95
2019-05-03T04:52:41.500Z,98542.48
2019-05-03T04:54:49.561Z,98548.12
2019-05-03T04:56:56.317Z,98556.97
2019-05-03T04:59:05.114Z,98560.50
2019-05-03T05:01:11.120Z,98552.50
2019-05-03T05:03:17.512Z,98564.77
2019-05-03T05:05:26.185Z,98566.97
2019-05-03T05:07:34.854Z,98564.36
2019-05-03T05:09:40.285Z,98573.14
2019-05-03T05:11:46.690Z,98566.56
2019-05-03T05:13:53.112Z,98570.54
2019-05-03T05:15:59.524Z,98570.07
2019-05-03T05:18:06.355Z,98571.38
2019-05-03T05:20:27.679Z,98568.30
2019-05-03T05:22:35.296Z,98568.22
2019-05-03T05:24:41.746Z,98573.14
2019-05-03T05:27:00.058Z,98572.67
2019-05-03T05:29:08.105Z,98582.32
2019-05-03T05:31:15.152Z,98585.81
2019-05-03T05:33:21.958Z,98584.30
2019-05-03T05:35:28.339Z,98589.41
2019-05-03T05:37:35.206Z,98589.05
2019-05-03T05:39:41.787Z,98594.27
2019-05-03T05:41:48.308Z,98594.66
2019-05-03T05:43:55.072Z,98597.04
2019-05-03T05:46:01.601Z,98593.38
2019-05-03T05:48:09.806Z,98600.53
2019-05-03T05:50:20.954Z,98605.09
2019-05-03T05:52:27.382Z,98615.36
2019-05-03T05:54:35.082Z,98621.83
2019-05-03T05:56:49.146Z,98628.66
2019-05-03T05:58:59.942Z,98632.62
2019-05-03T06:01:11.127Z,98633.90
2019-05-03T06:03:18.014Z,98632.11
2019-05-03T06:05:25.181Z,98636.00
2019-05-03T06:07:40.604Z,98641.38
2019-05-03T06:10:05.267Z,98638.38
2019-05-03T06:12:28.163Z,98639.75
2019-05-03T06:14:38.934Z,98641.97
2019-05-03T06:16:47.030Z,98646.86
2019-05-03T06:18:54.420Z,98644.13
2019-05-03T06:21:19.540Z,98651.19
2019-05-03T06:23:27.642Z,98651.19
2019-05-03T06:25:35.797Z,98667.46
2019-05-03T06:27:42.324Z,98657.91
2019-05-03T06:29:50.272Z,98662.34
2019-05-03T06:32:10.580Z,98668.95
2019-05-03T06:34:16.971Z,98671.19
2019-05-03T06:36:24.345Z,98688.84
2019-05-03T06:38:30.929Z,98683.19
2019-05-03T06:40:40.547Z,98686.84
2019-05-03T06:42:54.423Z,98682.02
2019-05-03T06:44:59.683Z,98684.97
2019-05-03T06:47:06.709Z,98684.94
2019-05-03T06:49:15.161Z,98695.48
2019-05-03T06:51:24.744Z,98693.72
2019-05-03T06:53:31.310Z,98695.86
2019-05-03T06:55:40.066Z,98702.42
2019-05-03T06:57:49.577Z,98705.17
2019-05-03T07:00:06.066Z,98702.53
2019-05-03T07:02:22.144Z,98699.73
2019-05-03T07:04:34.738Z,98697.84
2019-05-03T07:06:45.623Z,98689.46
2019-05-03T07:08:59.542Z,98694.89
2019-05-03T07:11:07.979Z,98703.75
2019-05-03T07:13:15.210Z,98704.77
2019-05-03T07:15:21.838Z,98712.87
2019-05-03T07:17:28.250Z,98711.06
2019-05-03T07:19:35.409Z,98718.82
2019-05-03T07:21:42.182Z,98722.86
2019-05-03T07:23:48.648Z,98725.88
2019-05-03T07:25:55.245Z,98724.14
2019-05-03T07:28:04.323Z,98731.34
2019-05-03T07:30:11.274Z,98738.02
2019-05-03T07:32:17.790Z,98747.42
2019-05-03T07:34:24.816Z,98749.80
2019-05-03T07:36:31.341Z,98751.66
2019-05-03T07:38:37.725Z,98753.84
2019-05-03T07:40:44.626Z,98758.56
2019-05-03T07:42:51.276Z,98754.57
2019-05-03T07:44:57.663Z,98754.91
2019-05-03T07:47:04.766Z,98760.16
2019-05-03T07:49:11.425Z,98757.34
2019-05-03T07:51:17.806Z,98758.27
2019-05-03T07:53:25.170Z,98759.76
2019-05-03T07:55:48.857Z,98753.17
2019-05-03T07:57:56.874Z,98751.67
2019-05-03T08:00:05.016Z,98752.11
2019-05-03T08:02:11.840Z,98748.77
2019-05-03T08:04:19.076Z,98749.17
2019-05-03T08:06:25.524Z,98739.33
2019-05-03T08:08:31.948Z,98747.22
2019-05-03T08:10:38.335Z,98740.75
2019-05-03T08:12:45.228Z,98744.52
2019-05-03T08:14:51.926Z,98763.41
2019-05-03T08:16:58.317Z,98762.98
2019-05-03T08:19:05.296Z,98755.92
2019-05-03T08:21:11.721Z,98759.05
2019-05-03T08:23:27.355Z,98755.89
2019-05-03T08:25:26.303Z,98767.66
2019-05-03T08:27:32.788Z,98767.63
2019-05-03T08:29:39.158Z,98772.37
2019-05-03T08:31:47.250Z,98776.56
2019-05-03T08:34:07.397Z,98786.20
2019-05-03T08:36:15.629Z,98783.34
2019-05-03T08:38:21.865Z,98791.50
2019-05-03T08:40:29.994Z,98795.95
2019-05-03T08:42:36.521Z,98791.67
2019-05-03T08:44:42.990Z,98793.90
2019-05-03T08:46:49.487Z,98785.09
2019-05-03T08:48:55.953Z,98792.00
2019-05-03T08:51:04.538Z,98799.00
2019-05-03T08:53:11.357Z,98795.72
2019-05-03T08:55:18.684Z,98799.65
2019-05-03T08:57:26.562Z,98802.98
2019-05-03T08:59:35.518Z,98807.75
2019-05-03T09:01:41.218Z,98802.75
2019-05-03T09:03:47.632Z,98811.28
2019-05-03T09:05:56.427Z,98805.44
2019-05-03T09:08:02.383Z,98802.73
2019-05-03T09:10:21.035Z,98800.62
2019-05-03T09:12:57.852Z,98809.73
2019-05-03T09:15:05.587Z,98806.05
2019-05-03T09:17:11.970Z,98806.83
2019-05-03T09:19:18.521Z,98808.83
2019-05-03T09:21:25.551Z,98816.05
2019-05-03T09:23:32.257Z,98814.08
2019-05-03T09:25:38.993Z,98814.34
2019-05-03T09:27:45.358Z,98814.40
2019-05-03T09:29:52.976Z,98814.18
2019-05-03T09:31:59.449Z,98802.36
2019-05-03T09:34:08.341Z,98801.90
2019-05-03T09:36:14.847Z,98806.81
2019-05-03T09:38:25.746Z,98800.84
2019-05-03T09:40:32.253Z,98807.29
2019-05-03T09:42:38.821Z,98808.94
2019-05-03T09:44:45.319Z,98794.67
2019-05-03T09:46:51.700Z,98804.97
2019-05-03T09:49:10.269Z,98797.69
2019-05-03T09:51:06.527Z,98803.04
2019-05-03T09:53:14.802Z,98808.95
2019-05-03T09:55:25.236Z,98801.12
2019-05-03T09:57:31.144Z,98801.30
2019-05-03T09:59:37.560Z,98810.48
2019-05-03T10:01:45.682Z,98811.17
2019-05-03T10:03:54.771Z,98814.70
2019-05-03T10:06:00.513Z,98808.27
2019-05-03T10:08:08.826Z,98820.58
2019-05-03T10:10:17.646Z,98821.19
2019-05-03T10:12:25.486Z,98812.70
2019-05-03T10:14:32.553Z,98808.10
2019-05-03T10:16:40.748Z,98817.66
2019-05-03T10:18:47.469Z,98815.39
2019-05-03T10:20:56.152Z,98817.44
2019-05-03T10:23:05.328Z,98820.24
2019-05-03T10:25:12.955Z,98816.98
2019-05-03T10:27:20.052Z,98814.61
2019-05-03T10:29:26.504Z,98811.37
2019-05-03T10:31:38.706Z,98817.34
2019-05-03T10:33:55.505Z,98812.95
2019-05-03T10:36:01.929Z,98817.16
2019-05-03T10:38:08.312Z,98811.02
2019-05-03T10:40:17.807Z,98809.77
2019-05-03T10:42:24.500Z,98797.05
2019-05-03T10:44:30.944Z,98796.28
2019-05-03T10:46:37.407Z,98796.67
2019-05-03T10:48:45.097Z,98795.45
2019-05-03T10:50:51.889Z,98793.88
2019-05-03T10:53:04.974Z,98793.36
2019-05-03T10:55:11.102Z,98799.27
2019-05-03T10:57:19.128Z,98789.72
2019-05-03T10:59:25.653Z,98788.52
2019-05-03T11:01:35.914Z,98796.55
2019-05-03T11:03:42.008Z,98793.40
2019-05-03T11:05:48.385Z,98792.05
2019-05-03T11:07:55.729Z,98796.94
2019-05-03T11:10:02.085Z,98797.55
2019-05-03T11:12:08.620Z,98786.16
2019-05-03T11:14:15.107Z,98787.98
2019-05-03T11:16:22.527Z,98788.23
2019-05-03T11:18:28.943Z,98797.08
2019-05-03T11:20:38.954Z,98791.17
2019-05-03T11:22:45.396Z,98790.30
2019-05-03T11:24:51.784Z,98781.40
2019-05-03T11:27:00.264Z,98787.55
2019-05-03T11:29:06.830Z,98785.84
2019-05-03T11:31:15.528Z,98784.85
2019-05-03T11:33:26.494Z,98785.81
2019-05-03T11:35:35.129Z,98789.97
2019-05-03T11:37:52.324Z,98788.23
2019-05-03T11:39:58.808Z,98794.75
2019-05-03T11:42:05.328Z,98793.92
2019-05-03T11:44:29.947Z,98793.55
2019-05-03T11:46:36.349Z,98787.77
2019-05-03T11:48:42.737Z,98786.36
2019-05-03T11:50:49.326Z,98781.63
2019-05-03T11:52:55.805Z,98774.22
2019-05-03T11:55:02.218Z,98774.25
2019-05-03T11:57:26.423Z,98777.28
2019-05-03T11:59:36.128Z,98780.27
2019-05-03T12:01:44.948Z,98779.13
2019-05-03T12:03:51.558Z,98779.09
2019-05-03T12:05:59.710Z,98771.54
2019-05-03T12:08:06.105Z,98780.09
2019-05-03T12:10:29.787Z,98780.13
2019-05-03T12:12:26.306Z,98778.97
2019-05-03T12:14:34.539Z,98784.42
2019-05-03T12:17:10.644Z,98777.40
2019-05-03T12:18:54.029Z,98783.09
2019-05-03T12:21:00.234Z,98781.68
2019-05-03T12:23:10.005Z,98784.25
2019-05-03T12:25:17.922Z,98779.39
2019-05-03T12:27:24.830Z,98773.73
2019-05-03T12:29:31.222Z,98775.17
2019-05-03T12:31:40.555Z,98764.44
2019-05-03T12:33:46.136Z,98769.97
2019-05-03T12:35:52.496Z,98768.27
2019-05-03T12:37:58.985Z,98770.06
2019-05-03T12:40:07.271Z,98768.39
2019-05-03T12:42:14.870Z,98765.19
2019-05-03T12:44:21.408Z,98766.08
2019-05-03T12:46:27.799Z,98767.58
2019-05-03T12:48:35.517Z,98767.56
2019-05-03T12:50:42.800Z,98756.45
2019-05-03T12:52:50.839Z,98760.29
2019-05-03T12:54:58.637Z,98766.13
2019-05-03T12:57:05.293Z,98778.75
2019-05-03T12:59:13.387Z,98777.55
2019-05-03T13:01:41.772Z,98775.45
2019-05-03T13:03:47.340Z,98770.19
2019-05-03T13:05:55.598Z,98770.41
2019-05-03T13:08:38.053Z,98776.54
2019-05-03T13:10:45.345Z,98778.33
2019-05-03T13:12:53.289Z,98769.07
2019-05-03T13:14:59.869Z,98773.05
2019-05-03T13:17:06.570Z,98769.94
2019-05-03T13:19:15.104Z,98777.91
2019-05-03T13:21:21.124Z,98773.44
2019-05-03T13:23:27.539Z,98773.67
2019-05-03T13:25:35.576Z,98775.19
2019-05-03T13:27:42.088Z,98768.90
2019-05-03T13:29:50.049Z,98762.38
2019-05-03T13:32:01.877Z,98756.86
2019-05-03T13:34:05.606Z,98758.25
2019-05-03T13:36:12.400Z,98757.15
2019-05-03T13:38:18.818Z,98762.28
2019-05-03T13:40:25.190Z,98760.97
2019-05-03T13:42:34.875Z,98756.17
2019-05-03T13:44:40.656Z,98754.80
2019-05-03T13:46:47.034Z,98755.47
2019-05-03T13:48:55.334Z,98763.02
2019-05-03T13:51:01.548Z,98772.98
2019-05-03T13:53:07.949Z,98774.56
2019-05-03T13:55:15.702Z,98774.56
2019-05-03T13:57:22.110Z,98770.77
2019-05-03T13:59:28.482Z,98767.45
2019-05-03T14:01:35.935Z,98767.61
2019-05-03T14:03:42.527Z,98770.09
2019-05-03T14:05:49.463Z,98761.38
2019-05-03T14:07:56.714Z,98767.30
2019-05-03T14:10:09.219Z,98758.28
2019-05-03T14:12:15.809Z,98762.90
2019-05-03T14:14:22.213Z,98770.94
2019-05-03T14:16:29.366Z,98773.50
2019-05-03T14:18:36.241Z,98775.88
2019-05-03T14:20:46.817Z,98769.80
2019-05-03T14:22:54.371Z,98758.13
2019-05-03T14:25:00.768Z,98766.63
2019-05-03T14:27:09.263Z,98772.33
2019-05-03T14:29:15.630Z,98771.28
2019-05-03T14:31:22.104Z,98773.52
2019-05-03T14:33:28.600Z,98771.16
2019-05-03T14:35:35.292Z,98767.33
2019-05-03T14:37:41.724Z,98760.25
2019-05-03T14:39:48.120Z,98760.66
2019-05-03T14:41:55.545Z,98760.89
2019-05-03T14:44:02.173Z,98767.45
2019-05-03T14:46:08.582Z,98769.19
2019-05-03T14:48:15.282Z,98784.52
2019-05-03T14:50:21.691Z,98779.06
2019-05-03T14:52:28.601Z,98785.36
2019-05-03T14:54:37.502Z,98787.02
2019-05-03T14:56:47.527Z,98801.08
2019-05-03T14:58:59.822Z,98786.20
2019-05-03T15:01:10.453Z,98784.19
2019-05-03T15:03:18.699Z,98783.95
2019-05-03T15:05:25.358Z,98789.23
2019-05-03T15:07:31.788Z,98788.52
2019-05-03T15:09:38.179Z,98788.25
2019-05-03T15:11:45.872Z,98790.85
2019-05-03T15:13:52.264Z,98795.96
2019-05-03T15:15:58.654Z,98801.11
2019-05-03T15:18:05.892Z,98800.16
2019-05-03T15:20:14.756Z,98797.02
2019-05-03T15:22:20.726Z,98795.30
2019-05-03T15:24:27.058Z,98800.19
2019-05-03T15:26:35.371Z,98795.98
2019-05-03T15:28:41.603Z,98798.06
2019-05-03T15:30:48.074Z,98808.92
2019-05-03T15:32:59.782Z,98807.46
2019-05-03T15:35:04.579Z,98811.58
2019-05-03T15:37:10.755Z,98802.08
2019-05-03T15:39:17.117Z,98810.67
2019-05-03T15:41:25.183Z,98799.33
2019-05-03T15:43:42.139Z,98797.89
2019-05-03T15:45:50.223Z,98807.74
2019-05-03T15:48:09.870Z,98811.02
2019-05-03T15:50:16.432Z,98817.91
2019-05-03T15:52:24.570Z,98825.29
2019-05-03T15:54:31.141Z,98818.97
2019-05-03T15:56:38.638Z,98821.02
2019-05-03T15:58:46.921Z,98824.48
2019-05-03T16:00:55.365Z,98825.84
2019-05-03T16:03:08.028Z,98822.96
2019-05-03T16:05:09.860Z,98827.68
2019-05-03T16:07:17.331Z,98825.22
2019-05-03T16:09:24.620Z,98828.25
2019-05-03T16:11:31.036Z,98826.51
2019-05-03T16:13:38.368Z,98823.77
2019-05-03T16:15:44.931Z,98831.58
2019-05-03T16:17:51.330Z,98823.47
2019-05-03T16:19:57.736Z,98827.29
2019-05-03T16:22:04.903Z,98828.00
2019-05-03T16:24:11.414Z,98830.20
2019-05-03T16:26:18.548Z,98833.59
2019-05-03T16:28:26.675Z,98834.92
2019-05-03T16:30:40.814Z,98836.82
2019-05-03T16:32:48.167Z,98845.26
2019-05-03T16:34:55.030Z,98837.57
2019-05-03T16:37:01.560Z,98842.36
2019-05-03T16:39:09.262Z,98836.82
2019-05-03T16:41:18.085Z,98839.53
2019-05-03T16:43:25.687Z,98843.36
2019-05-03T16:45:34.914Z,98844.38
2019-05-03T16:47:44.797Z,98849.45
2019-05-03T16:49:52.301Z,98852.33
2019-05-03T16:51:58.691Z,98854.66
2019-05-03T16:54:05.814Z,98857.37
2019-05-03T16:56:12.166Z,98857.91
2019-05-03T16:58:18.643Z,98868.11
2019-05-03T17:00:26.058Z,98861.64
2019-05-03T17:02:32.450Z,98869.64
2019-05-03T17:04:46.152Z,98867.06
2019-05-03T17:06:57.322Z,98872.47
2019-05-03T17:09:11.016Z,98870.79
2019-05-03T17:11:20.639Z,98870.86
2019-05-03T17:13:27.063Z,98878.08
2019-05-03T17:15:35.226Z,98879.92
2019-05-03T17:17:41.915Z,98882.27
2019-05-03T17:19:48.400Z,98884.15
2019-05-03T17:21:54.903Z,98881.19
2019-05-03T17:24:01.382Z,98885.80
2019-05-03T17:26:07.956Z,98883.78
2019-05-03T17:28:15.697Z,98887.36
2019-05-03T17:30:32.533Z,98887.89
2019-05-03T17:32:30.589Z,98891.01
2019-05-03T17:34:37.026Z,98901.16
2019-05-03T17:36:45.034Z,98893.69
2019-05-03T17:38:55.003Z,98894.61
2019-05-03T17:41:01.103Z,98895.52
2019-05-03T17:43:24.141Z,98896.02
2019-05-03T17:45:32.260Z,98896.02
2019-05-03T17:47:38.649Z,98895.58
2019-05-03T17:49:45.232Z,98906.16
2019-05-03T17:52:01.351Z,98903.98
2019-05-03T17:54:15.464Z,98907.97
2019-05-03T17:56:32.294Z,98909.34
2019-05-03T17:58:55.285Z,98914.22
2019-05-03T18:01:21.474Z,98913.84
2019-05-03T18:03:30.149Z,98920.93
2019-05-03T18:05:44.908Z,98925.79
2019-05-03T18:08:10.916Z,98927.62
2019-05-03T18:10:17.579Z,98940.12
2019-05-03T18:12:24.403Z,98936.26
2019-05-03T18:14:31.046Z,98942.52
2019-05-03T18:16:37.511Z,98949.61
2019-05-03T18:18:45.427Z,98951.00
2019-05-03T18:20:51.974Z,98954.14
2019-05-03T18:22:58.391Z,98956.38
2019-05-03T18:25:05.969Z,98956.03
2019-05-03T18:27:12.360Z,98964.02
2019-05-03T18:29:18.891Z,98961.84
2019-05-03T18:31:25.373Z,98965.78
2019-05-03T18:33:31.767Z,98965.30
2019-05-03T18:35:38.213Z,98969.23
2019-05-03T18:37:46.714Z,98970.94
2019-05-03T18:39:54.708Z,98971.37
2019-05-03T18:42:01.277Z,98977.08
2019-05-03T18:44:09.561Z,98975.33
2019-05-03T18:46:26.788Z,98977.08
2019-05-03T18:48:33.169Z,98972.70
2019-05-03T18:50:39.972Z,98978.88
2019-05-03T18:52:46.374Z,98979.39
2019-05-03T18:54:52.841Z,98980.81
2019-05-03T18:56:59.797Z,98977.40
2019-05-03T18:59:06.182Z,98988.00
2019-05-03T19:01:14.759Z,98985.88
2019-05-03T19:03:21.209Z,98985.92
2019-05-03T19:05:31.932Z,98983.79
2019-05-03T19:07:57.029Z,98991.33
2019-05-03T19:10:12.204Z,98986.09
2019-05-03T19:12:20.227Z,98994.95
2019-05-03T19:14:27.673Z,98993.66
2019-05-03T19:16:35.814Z,98988.44
2019-05-03T19:18:42.290Z,99000.37
2019-05-03T19:20:48.751Z,98997.75
2019-05-03T19:22:55.164Z,99005.70
2019-05-03T19:25:01.558Z,99001.77
2019-05-03T19:27:09.515Z,99001.81
2019-05-03T19:29:15.934Z,99003.58
2019-05-03T19:31:24.998Z,99006.70
2019-05-03T19:33:32.403Z,99009.34
2019-05-03T19:35:38.901Z,99018.16
2019-05-03T19:37:46.676Z,99018.16
2019-05-03T19:39:55.253Z,99015.11
2019-05-03T19:42:01.839Z,99023.45
2019-05-03T19:44:08.363Z,99017.77
2019-05-03T19:46:16.582Z,99023.03
2019-05-03T19:48:25.409Z,99018.64
2019-05-03T19:50:31.645Z,99021.75
2019-05-03T19:52:55.618Z,99017.79
2019-05-03T19:55:04.859Z,99016.43
2019-05-03T19:57:15.112Z,99022.13
2019-05-03T19:59:25.541Z,99020.41
2019-05-03T20:01:36.445Z,99013.81
2019-05-03T20:03:45.494Z,99020.40
2019-05-03T20:05:59.011Z,99026.98
2019-05-03T20:08:19.023Z,99020.84
2019-05-03T20:10:25.497Z,99022.16
2019-05-03T20:12:31.870Z,99023.46
2019-05-03T20:14:38.290Z,99019.50
2019-05-03T20:16:45.044Z,99023.48
2019-05-03T20:18:51.638Z,99027.85
2019-05-03T20:20:58.116Z,99028.28
2019-05-03T20:23:05.254Z,99030.48
2019-05-03T20:25:11.985Z,99022.57
2019-05-03T20:27:18.397Z,99022.58
2019-05-03T20:29:25.148Z,99023.89
2019-05-03T20:31:31.812Z,99022.12
2019-05-03T20:33:38.231Z,99019.92
2019-05-03T20:35:45.229Z,99023.45
2019-05-03T20:37:51.899Z,99019.94
2019-05-03T20:39:58.381Z,99023.88
2019-05-03T20:42:04.935Z,99023.42
2019-05-03T20:44:21.887Z,99024.73
2019-05-03T20:46:41.695Z,99026.05
2019-05-03T20:48:49.792Z,99025.59
2019-05-03T20:50:56.185Z,99020.77
2019-05-03T20:53:02.721Z,99030.38
2019-05-03T20:55:09.455Z,99022.91
2019-05-03T20:57:15.819Z,99028.13
2019-05-03T20:59:22.638Z,99029.45
2019-05-03T21:01:31.489Z,99033.35
2019-05-03T21:03:41.805Z,99031.56
2019-05-03T21:05:55.356Z,99038.56
2019-05-03T21:08:02.977Z,99041.16
2019-05-03T21:10:15.634Z,99035.44
2019-05-03T21:12:22.043Z,99038.94
2019-05-03T21:14:28.443Z,99043.73
2019-05-03T21:16:40.303Z,99041.95
2019-05-03T21:18:49.172Z,99036.67
2019-05-03T21:21:03.228Z,99040.56
2019-05-03T21:23:11.728Z,99042.66
2019-05-03T21:25:21.808Z,99038.27
2019-05-03T21:27:44.981Z,99043.91
2019-05-03T21:29:54.835Z,99043.88
2019-05-03T21:32:00.489Z,99040.75
2019-05-03T21:35:01.009Z,99037.20
2019-05-03T21:36:27.289Z,99044.13
2019-05-03T21:38:35.534Z,99039.28
2019-05-03T21:40:45.197Z,99040.53
2019-05-03T21:42:51.591Z,99044.02
2019-05-03T21:44:57.996Z,99039.12
2019-05-03T21:47:06.192Z,99046.91
2019-05-03T21:49:14.908Z,99043.39
2019-05-03T21:51:21.839Z,99042.88
2019-05-03T21:53:28.252Z,99049.81
2019-05-03T21:55:36.191Z,99044.92
2019-05-03T21:57:42.615Z,99044.86
2019-05-03T21:59:49.013Z,99048.69
2019-05-03T22:01:55.537Z,99047.27
2019-05-03T22:04:01.981Z,99048.48
2019-05-03T22:06:08.382Z,99047.10
2019-05-03T22:08:14.779Z,99057.04
2019-05-03T22:10:22.332Z,99051.30
2019-05-03T22:12:28.723Z,99058.65
2019-05-03T22:14:36.748Z,99058.55
2019-05-03T22:16:45.044Z,99050.64
2019-05-03T22:18:51.639Z,99054.95
2019-05-03T22:21:08.723Z,99053.56
2019-05-03T22:23:29.905Z,99052.67
2019-05-03T22:25:37.948Z,99055.61
2019-05-03T22:27:45.509Z,99055.09
2019-05-03T22:29:52.295Z,99051.97
2019-05-03T22:31:58.853Z,99051.52
2019-05-03T22:34:05.424Z,99050.21
2019-05-03T22:36:11.849Z,99043.62
2019-05-03T22:38:18.291Z,99046.64
2019-05-03T22:40:25.112Z,99042.27
2019-05-03T22:42:31.761Z,99047.84
2019-05-03T22:44:38.146Z,99044.78
2019-05-03T22:46:44.730Z,99042.99
2019-05-03T22:48:51.134Z,99041.20
2019-05-03T22:50:57.548Z,99039.45
2019-05-03T22:53:05.532Z,99042.46
2019-05-03T22:55:12.535Z,99038.09
2019-05-03T22:57:18.922Z,99033.70
2019-05-03T22:59:25.464Z,99037.20
2019-05-03T23:01:32.008Z,99040.70
2019-05-03T23:03:44.629Z,99035.89
2019-05-03T23:05:50.538Z,99033.31
2019-05-03T23:07:57.160Z,99030.69
2019-05-03T23:10:05.905Z,99038.14
2019-05-03T23:12:13.131Z,99035.95
2019-05-03T23:14:19.628Z,99032.05
2019-05-03T23:16:26.001Z,99035.98
2019-05-03T23:18:32.386Z,99033.25
2019-05-03T23:20:46.381Z,99035.80
2019-05-03T23:22:54.698Z,99040.06
2019-05-03T23:25:00.869Z,99031.68
2019-05-03T23:27:07.291Z,99028.10
2019-05-03T23:29:13.678Z,99027.98
2019-05-03T23:31:20.137Z,99031.86
2019-05-03T23:33:26.558Z,99034.78
2019-05-03T23:35:34.905Z,99033.34
2019-05-03T23:37:41.035Z,99034.46
2019-05-03T23:39:47.447Z,99034.28
2019-05-03T23:41:55.740Z,99033.34
2019-05-03T23:44:02.123Z,99028.87
2019-05-03T23:46:09.027Z,99029.20
2019-05-03T23:48:15.420Z,99027.44
2019-05-03T23:50:24.909Z,99019.50
2019-05-03T23:52:35.225Z,99022.05
2019-05-03T23:54:41.971Z,99025.91
2019-05-03T23:56:48.364Z,99025.02
2019-05-03T23:58:55.080Z,99019.83
